sensor_id;sensor_type;location;lat;lon;timestamp;temperature;humidity
5842;DHT22;2947;52.276;9.946;2022-11-25T00:01:11;5.10;99.90
5842;DHT22;2947;52.276;9.946;2022-11-25T00:03:39;5.10;99.90
5842;DHT22;2947;52.276;9.946;2022-11-25T00:08:41;5.10;99.90
5842;DHT22;2947;52.276;9.946;2022-11-25T00:11:09;5.10;99.90
5842;DHT22;2947;52.276;9.946;2022-11-25T00:13:36;5.10;99.90
5842;DHT22;2947;52.276;9.946;2022-11-25T00:16:08;5.10;99.90
5842;DHT22;2947;52.276;9.946;2022-11-25T00:18:35;5.10;99.90
5842;DHT22;2947;52.276;9.946;2022-11-25T00:21:10;5.10;99.90
5842;DHT22;2947;52.276;9.946;2022-11-25T00:23:37;5.10;99.90
5842;DHT22;2947;52.276;9.946;2022-11-25T00:26:12;5.10;99.90
5842;DHT22;2947;52.276;9.946;2022-11-25T00:28:40;5.10;99.90
5842;DHT22;2947;52.276;9.946;2022-11-25T00:31:09;5.10;99.90
5842;DHT22;2947;52.276;9.946;2022-11-25T00:33:38;5.10;99.90
5842;DHT22;2947;52.276;9.946;2022-11-25T00:36:06;5.10;99.90
5842;DHT22;2947;52.276;9.946;2022-11-25T00:38:39;5.10;99.90
5842;DHT22;2947;52.276;9.946;2022-11-25T00:41:05;5.00;99.90
5842;DHT22;2947;52.276;9.946;2022-11-25T00:43:49;5.00;99.90
5842;DHT22;2947;52.276;9.946;2022-11-25T00:46:33;4.90;99.90
5842;DHT22;2947;52.276;9.946;2022-11-25T00:48:58;5.00;99.90
5842;DHT22;2947;52.276;9.946;2022-11-25T00:51:24;5.00;99.90
5842;DHT22;2947;52.276;9.946;2022-11-25T00:53:50;5.00;99.90
5842;DHT22;2947;52.276;9.946;2022-11-25T00:56:15;5.00;99.90
5842;DHT22;2947;52.276;9.946;2022-11-25T00:58:42;4.90;99.90
5842;DHT22;2947;52.276;9.946;2022-11-25T01:01:09;4.90;99.90
5842;DHT22;2947;52.276;9.946;2022-11-25T01:03:36;5.00;99.90
5842;DHT22;2947;52.276;9.946;2022-11-25T01:06:04;5.00;99.90
5842;DHT22;2947;52.276;9.946;2022-11-25T01:08:32;5.00;99.90
5842;DHT22;2947;52.276;9.946;2022-11-25T01:11:05;4.90;99.90
5842;DHT22;2947;52.276;9.946;2022-11-25T01:13:32;5.00;99.90
5842;DHT22;2947;52.276;9.946;2022-11-25T01:16:05;4.90;99.90
5842;DHT22;2947;52.276;9.946;2022-11-25T01:18:32;4.90;99.90
5842;DHT22;2947;52.276;9.946;2022-11-25T01:21:18;4.90;99.90
5842;DHT22;2947;52.276;9.946;2022-11-25T01:23:46;4.90;99.90
5842;DHT22;2947;52.276;9.946;2022-11-25T01:26:18;4.90;99.90
5842;DHT22;2947;52.276;9.946;2022-11-25T01:28:46;4.90;99.90
5842;DHT22;2947;52.276;9.946;2022-11-25T01:31:17;4.90;99.90
5842;DHT22;2947;52.276;9.946;2022-11-25T01:33:45;4.90;99.90
5842;DHT22;2947;52.276;9.946;2022-11-25T01:36:16;4.90;99.90
5842;DHT22;2947;52.276;9.946;2022-11-25T01:38:43;4.90;99.90
5842;DHT22;2947;52.276;9.946;2022-11-25T01:41:12;4.80;99.90
5842;DHT22;2947;52.276;9.946;2022-11-25T01:43:39;4.80;99.90
5842;DHT22;2947;52.276;9.946;2022-11-25T01:46:25;4.80;99.90
5842;DHT22;2947;52.276;9.946;2022-11-25T01:48:56;4.80;99.90
5842;DHT22;2947;52.276;9.946;2022-11-25T01:51:46;4.80;99.90
5842;DHT22;2947;52.276;9.946;2022-11-25T01:54:18;4.70;99.90
5842;DHT22;2947;52.276;9.946;2022-11-25T01:56:49;4.70;99.90
5842;DHT22;2947;52.276;9.946;2022-11-25T01:59:18;4.70;99.90
5842;DHT22;2947;52.276;9.946;2022-11-25T02:01:44;4.70;99.90
5842;DHT22;2947;52.276;9.946;2022-11-25T02:04:12;4.70;99.90
5842;DHT22;2947;52.276;9.946;2022-11-25T02:06:44;4.70;99.90
5842;DHT22;2947;52.276;9.946;2022-11-25T02:09:13;4.70;99.90
5842;DHT22;2947;52.276;9.946;2022-11-25T02:11:41;4.80;99.90
5842;DHT22;2947;52.276;9.946;2022-11-25T02:14:08;4.80;99.90
5842;DHT22;2947;52.276;9.946;2022-11-25T02:16:36;4.80;99.90
5842;DHT22;2947;52.276;9.946;2022-11-25T02:19:02;4.80;99.90
5842;DHT22;2947;52.276;9.946;2022-11-25T02:21:35;4.80;99.90
5842;DHT22;2947;52.276;9.946;2022-11-25T02:24:33;4.80;99.90
5842;DHT22;2947;52.276;9.946;2022-11-25T02:27:06;4.80;99.90
5842;DHT22;2947;52.276;9.946;2022-11-25T02:29:32;4.80;99.90
5842;DHT22;2947;52.276;9.946;2022-11-25T02:31:58;4.80;99.90
5842;DHT22;2947;52.276;9.946;2022-11-25T02:34:23;4.80;99.90
5842;DHT22;2947;52.276;9.946;2022-11-25T02:36:49;4.80;99.90
5842;DHT22;2947;52.276;9.946;2022-11-25T02:39:17;4.80;99.90
5842;DHT22;2947;52.276;9.946;2022-11-25T02:41:50;4.80;99.90
5842;DHT22;2947;52.276;9.946;2022-11-25T02:44:18;4.80;99.90
5842;DHT22;2947;52.276;9.946;2022-11-25T02:46:44;4.90;99.90
5842;DHT22;2947;52.276;9.946;2022-11-25T02:49:10;4.90;99.90
5842;DHT22;2947;52.276;9.946;2022-11-25T02:51:38;4.90;99.90
5842;DHT22;2947;52.276;9.946;2022-11-25T02:54:05;5.00;99.90
5842;DHT22;2947;52.276;9.946;2022-11-25T02:56:33;5.00;99.90
5842;DHT22;2947;52.276;9.946;2022-11-25T02:58:59;5.00;99.90
5842;DHT22;2947;52.276;9.946;2022-11-25T03:01:26;5.10;99.90
5842;DHT22;2947;52.276;9.946;2022-11-25T03:03:52;5.20;99.90
5842;DHT22;2947;52.276;9.946;2022-11-25T03:06:18;5.10;99.90
5842;DHT22;2947;52.276;9.946;2022-11-25T03:08:44;5.10;99.90
5842;DHT22;2947;52.276;9.946;2022-11-25T03:11:09;5.20;99.90
5842;DHT22;2947;52.276;9.946;2022-11-25T03:13:35;5.20;99.90
5842;DHT22;2947;52.276;9.946;2022-11-25T03:16:01;5.20;99.90
5842;DHT22;2947;52.276;9.946;2022-11-25T03:18:26;5.10;99.90
5842;DHT22;2947;52.276;9.946;2022-11-25T03:20:53;5.10;99.90
5842;DHT22;2947;52.276;9.946;2022-11-25T03:23:20;5.10;99.90
5842;DHT22;2947;52.276;9.946;2022-11-25T03:25:46;5.10;99.90
5842;DHT22;2947;52.276;9.946;2022-11-25T03:28:12;5.10;99.90
5842;DHT22;2947;52.276;9.946;2022-11-25T03:30:38;5.10;99.90
5842;DHT22;2947;52.276;9.946;2022-11-25T03:33:05;5.10;99.90
5842;DHT22;2947;52.276;9.946;2022-11-25T03:35:30;5.10;99.90
5842;DHT22;2947;52.276;9.946;2022-11-25T03:37:56;5.20;99.90
5842;DHT22;2947;52.276;9.946;2022-11-25T03:40:22;5.20;99.90
5842;DHT22;2947;52.276;9.946;2022-11-25T03:42:48;5.20;99.90
5842;DHT22;2947;52.276;9.946;2022-11-25T03:45:14;5.20;99.90
5842;DHT22;2947;52.276;9.946;2022-11-25T03:47:42;5.20;99.90
5842;DHT22;2947;52.276;9.946;2022-11-25T03:50:10;5.20;99.90
5842;DHT22;2947;52.276;9.946;2022-11-25T03:52:37;5.20;99.90
5842;DHT22;2947;52.276;9.946;2022-11-25T03:55:04;5.20;99.90
5842;DHT22;2947;52.276;9.946;2022-11-25T03:57:31;5.20;99.90
5842;DHT22;2947;52.276;9.946;2022-11-25T03:59:57;5.20;99.90
5842;DHT22;2947;52.276;9.946;2022-11-25T04:02:23;5.10;99.90
5842;DHT22;2947;52.276;9.946;2022-11-25T04:04:48;5.10;99.90
5842;DHT22;2947;52.276;9.946;2022-11-25T04:07:14;5.10;99.90
5842;DHT22;2947;52.276;9.946;2022-11-25T04:09:40;5.10;99.90
5842;DHT22;2947;52.276;9.946;2022-11-25T04:12:06;5.20;99.90
5842;DHT22;2947;52.276;9.946;2022-11-25T04:14:50;5.20;99.90
5842;DHT22;2947;52.276;9.946;2022-11-25T04:17:16;5.20;99.90
5842;DHT22;2947;52.276;9.946;2022-11-25T04:19:41;5.20;99.90
5842;DHT22;2947;52.276;9.946;2022-11-25T04:22:07;5.30;99.90
5842;DHT22;2947;52.276;9.946;2022-11-25T04:24:33;5.30;99.90
5842;DHT22;2947;52.276;9.946;2022-11-25T04:26:59;5.40;99.90
5842;DHT22;2947;52.276;9.946;2022-11-25T04:29:25;5.40;99.90
5842;DHT22;2947;52.276;9.946;2022-11-25T04:31:51;5.40;99.90
5842;DHT22;2947;52.276;9.946;2022-11-25T04:34:16;5.40;99.90
5842;DHT22;2947;52.276;9.946;2022-11-25T04:36:42;5.50;99.90
5842;DHT22;2947;52.276;9.946;2022-11-25T04:39:08;5.40;99.90
5842;DHT22;2947;52.276;9.946;2022-11-25T04:41:33;5.40;99.90
5842;DHT22;2947;52.276;9.946;2022-11-25T04:43:59;5.40;99.90
5842;DHT22;2947;52.276;9.946;2022-11-25T04:46:29;5.40;99.90
5842;DHT22;2947;52.276;9.946;2022-11-25T04:48:58;5.40;99.90
5842;DHT22;2947;52.276;9.946;2022-11-25T04:51:24;5.30;99.90
5842;DHT22;2947;52.276;9.946;2022-11-25T04:53:50;5.30;99.90
5842;DHT22;2947;52.276;9.946;2022-11-25T04:56:17;5.40;99.90
5842;DHT22;2947;52.276;9.946;2022-11-25T04:58:44;5.30;99.90
5842;DHT22;2947;52.276;9.946;2022-11-25T05:01:29;5.40;99.90
5842;DHT22;2947;52.276;9.946;2022-11-25T05:03:55;5.40;99.90
5842;DHT22;2947;52.276;9.946;2022-11-25T05:06:20;5.40;99.90
5842;DHT22;2947;52.276;9.946;2022-11-25T05:08:49;5.40;99.90
5842;DHT22;2947;52.276;9.946;2022-11-25T05:11:16;5.40;99.90
5842;DHT22;2947;52.276;9.946;2022-11-25T05:13:42;5.40;99.90
5842;DHT22;2947;52.276;9.946;2022-11-25T05:16:07;5.30;99.90
5842;DHT22;2947;52.276;9.946;2022-11-25T05:18:33;5.30;99.90
5842;DHT22;2947;52.276;9.946;2022-11-25T05:21:03;5.20;99.90
5842;DHT22;2947;52.276;9.946;2022-11-25T05:23:29;5.20;99.90
5842;DHT22;2947;52.276;9.946;2022-11-25T05:26:02;5.20;99.90
5842;DHT22;2947;52.276;9.946;2022-11-25T05:28:29;5.20;99.90
5842;DHT22;2947;52.276;9.946;2022-11-25T05:30:55;5.20;99.90
5842;DHT22;2947;52.276;9.946;2022-11-25T05:33:21;5.20;99.90
5842;DHT22;2947;52.276;9.946;2022-11-25T05:35:55;5.30;99.90
5842;DHT22;2947;52.276;9.946;2022-11-25T05:38:22;5.30;99.90
5842;DHT22;2947;52.276;9.946;2022-11-25T05:40:47;5.30;99.90
5842;DHT22;2947;52.276;9.946;2022-11-25T05:43:13;5.20;99.90
5842;DHT22;2947;52.276;9.946;2022-11-25T05:45:39;5.20;99.90
5842;DHT22;2947;52.276;9.946;2022-11-25T05:48:05;5.20;99.90
5842;DHT22;2947;52.276;9.946;2022-11-25T05:50:30;5.10;99.90
5842;DHT22;2947;52.276;9.946;2022-11-25T05:52:56;5.20;99.90
5842;DHT22;2947;52.276;9.946;2022-11-25T05:55:21;5.20;99.90
5842;DHT22;2947;52.276;9.946;2022-11-25T05:57:47;5.20;99.90
5842;DHT22;2947;52.276;9.946;2022-11-25T06:00:13;5.20;99.90
5842;DHT22;2947;52.276;9.946;2022-11-25T06:02:39;5.30;99.90
5842;DHT22;2947;52.276;9.946;2022-11-25T06:05:05;5.30;99.90
5842;DHT22;2947;52.276;9.946;2022-11-25T06:07:31;5.30;99.90
5842;DHT22;2947;52.276;9.946;2022-11-25T06:09:56;5.40;99.90
5842;DHT22;2947;52.276;9.946;2022-11-25T06:12:22;5.40;99.90
5842;DHT22;2947;52.276;9.946;2022-11-25T06:14:49;5.40;99.90
5842;DHT22;2947;52.276;9.946;2022-11-25T06:17:15;5.50;99.90
5842;DHT22;2947;52.276;9.946;2022-11-25T06:19:41;5.50;99.90
5842;DHT22;2947;52.276;9.946;2022-11-25T06:22:06;5.50;99.90
5842;DHT22;2947;52.276;9.946;2022-11-25T06:24:32;5.50;99.90
5842;DHT22;2947;52.276;9.946;2022-11-25T06:26:58;5.50;99.90
5842;DHT22;2947;52.276;9.946;2022-11-25T06:29:24;5.60;99.90
5842;DHT22;2947;52.276;9.946;2022-11-25T06:31:50;5.60;99.90
5842;DHT22;2947;52.276;9.946;2022-11-25T06:34:16;5.60;99.90
5842;DHT22;2947;52.276;9.946;2022-11-25T06:36:41;5.70;99.90
5842;DHT22;2947;52.276;9.946;2022-11-25T06:39:07;5.70;99.90
5842;DHT22;2947;52.276;9.946;2022-11-25T06:41:33;5.70;99.90
5842;DHT22;2947;52.276;9.946;2022-11-25T06:43:59;5.80;99.90
5842;DHT22;2947;52.276;9.946;2022-11-25T06:46:25;5.80;99.90
5842;DHT22;2947;52.276;9.946;2022-11-25T06:48:51;5.90;99.90
5842;DHT22;2947;52.276;9.946;2022-11-25T06:51:17;5.90;99.90
5842;DHT22;2947;52.276;9.946;2022-11-25T06:53:43;5.90;99.90
5842;DHT22;2947;52.276;9.946;2022-11-25T06:56:18;6.00;99.90
5842;DHT22;2947;52.276;9.946;2022-11-25T06:58:47;6.00;99.90
5842;DHT22;2947;52.276;9.946;2022-11-25T07:03:45;6.00;99.90
5842;DHT22;2947;52.276;9.946;2022-11-25T07:06:13;6.00;99.90
5842;DHT22;2947;52.276;9.946;2022-11-25T07:08:40;6.00;99.90
5842;DHT22;2947;52.276;9.946;2022-11-25T07:11:09;6.10;99.90
5842;DHT22;2947;52.276;9.946;2022-11-25T07:13:40;6.10;99.90
5842;DHT22;2947;52.276;9.946;2022-11-25T07:16:06;6.10;99.90
5842;DHT22;2947;52.276;9.946;2022-11-25T07:18:34;6.10;99.90
5842;DHT22;2947;52.276;9.946;2022-11-25T07:21:03;6.10;99.90
5842;DHT22;2947;52.276;9.946;2022-11-25T07:23:34;6.10;99.90
5842;DHT22;2947;52.276;9.946;2022-11-25T07:26:07;6.20;99.90
5842;DHT22;2947;52.276;9.946;2022-11-25T07:28:35;6.20;99.90
5842;DHT22;2947;52.276;9.946;2022-11-25T07:33:43;6.20;99.90
5842;DHT22;2947;52.276;9.946;2022-11-25T07:36:11;6.30;99.90
5842;DHT22;2947;52.276;9.946;2022-11-25T07:38:38;6.30;99.90
5842;DHT22;2947;52.276;9.946;2022-11-25T07:41:06;6.30;99.90
5842;DHT22;2947;52.276;9.946;2022-11-25T07:43:33;6.30;99.90
5842;DHT22;2947;52.276;9.946;2022-11-25T07:46:52;6.30;99.90
5842;DHT22;2947;52.276;9.946;2022-11-25T07:49:05;6.30;99.90
5842;DHT22;2947;52.276;9.946;2022-11-25T07:51:36;6.30;99.90
5842;DHT22;2947;52.276;9.946;2022-11-25T07:54:07;6.30;99.90
5842;DHT22;2947;52.276;9.946;2022-11-25T07:56:35;6.30;99.90
5842;DHT22;2947;52.276;9.946;2022-11-25T07:59:01;6.30;99.90
5842;DHT22;2947;52.276;9.946;2022-11-25T08:01:27;6.30;99.90
5842;DHT22;2947;52.276;9.946;2022-11-25T08:03:53;6.30;99.90
5842;DHT22;2947;52.276;9.946;2022-11-25T08:06:22;6.30;99.90
5842;DHT22;2947;52.276;9.946;2022-11-25T08:08:50;6.30;99.90
5842;DHT22;2947;52.276;9.946;2022-11-25T08:11:21;6.40;99.90
5842;DHT22;2947;52.276;9.946;2022-11-25T08:13:55;6.40;99.90
5842;DHT22;2947;52.276;9.946;2022-11-25T08:16:22;6.40;99.90
5842;DHT22;2947;52.276;9.946;2022-11-25T08:18:52;6.40;99.90
5842;DHT22;2947;52.276;9.946;2022-11-25T08:21:18;6.40;99.90
5842;DHT22;2947;52.276;9.946;2022-11-25T08:23:45;6.40;99.90
5842;DHT22;2947;52.276;9.946;2022-11-25T08:28:48;6.50;99.90
5842;DHT22;2947;52.276;9.946;2022-11-25T08:31:34;6.60;99.90
5842;DHT22;2947;52.276;9.946;2022-11-25T08:34:02;6.60;99.90
5842;DHT22;2947;52.276;9.946;2022-11-25T08:36:32;6.70;99.90
5842;DHT22;2947;52.276;9.946;2022-11-25T08:39:00;6.70;99.90
5842;DHT22;2947;52.276;9.946;2022-11-25T08:41:32;6.70;99.90
5842;DHT22;2947;52.276;9.946;2022-11-25T08:44:01;6.70;99.90
5842;DHT22;2947;52.276;9.946;2022-11-25T08:46:31;6.70;99.90
5842;DHT22;2947;52.276;9.946;2022-11-25T08:49:01;6.70;99.90
5842;DHT22;2947;52.276;9.946;2022-11-25T08:51:30;6.70;99.90
5842;DHT22;2947;52.276;9.946;2022-11-25T08:53:57;6.70;99.90
5842;DHT22;2947;52.276;9.946;2022-11-25T08:56:25;6.70;99.90
5842;DHT22;2947;52.276;9.946;2022-11-25T08:58:51;6.80;99.90
5842;DHT22;2947;52.276;9.946;2022-11-25T09:01:18;6.80;99.90
5842;DHT22;2947;52.276;9.946;2022-11-25T09:03:47;6.80;99.90
5842;DHT22;2947;52.276;9.946;2022-11-25T09:06:15;6.90;99.90
5842;DHT22;2947;52.276;9.946;2022-11-25T09:08:42;6.90;99.90
5842;DHT22;2947;52.276;9.946;2022-11-25T09:11:09;6.90;99.90
5842;DHT22;2947;52.276;9.946;2022-11-25T09:13:35;6.90;99.90
5842;DHT22;2947;52.276;9.946;2022-11-25T09:16:02;6.90;99.90
5842;DHT22;2947;52.276;9.946;2022-11-25T09:18:28;6.90;99.90
5842;DHT22;2947;52.276;9.946;2022-11-25T09:20:56;6.90;99.90
5842;DHT22;2947;52.276;9.946;2022-11-25T09:23:23;6.90;99.90
5842;DHT22;2947;52.276;9.946;2022-11-25T09:25:56;6.90;99.90
5842;DHT22;2947;52.276;9.946;2022-11-25T09:28:24;6.90;99.90
5842;DHT22;2947;52.276;9.946;2022-11-25T09:30:51;6.90;99.90
5842;DHT22;2947;52.276;9.946;2022-11-25T09:33:17;7.00;99.90
5842;DHT22;2947;52.276;9.946;2022-11-25T09:35:44;7.00;99.90
5842;DHT22;2947;52.276;9.946;2022-11-25T09:38:10;7.00;99.90
5842;DHT22;2947;52.276;9.946;2022-11-25T09:40:42;7.00;99.90
5842;DHT22;2947;52.276;9.946;2022-11-25T09:44:09;7.00;99.90
5842;DHT22;2947;52.276;9.946;2022-11-25T09:47:19;7.00;99.90
5842;DHT22;2947;52.276;9.946;2022-11-25T09:50:07;7.00;99.90
5842;DHT22;2947;52.276;9.946;2022-11-25T09:55:41;6.90;99.90
5842;DHT22;2947;52.276;9.946;2022-11-25T10:01:25;7.00;99.90
5842;DHT22;2947;52.276;9.946;2022-11-25T10:04:08;7.00;99.90
5842;DHT22;2947;52.276;9.946;2022-11-25T10:06:42;7.00;99.90
5842;DHT22;2947;52.276;9.946;2022-11-25T10:09:15;7.10;99.90
5842;DHT22;2947;52.276;9.946;2022-11-25T10:11:47;7.10;99.90
5842;DHT22;2947;52.276;9.946;2022-11-25T10:14:32;7.10;99.90
5842;DHT22;2947;52.276;9.946;2022-11-25T10:17:20;7.20;99.90
5842;DHT22;2947;52.276;9.946;2022-11-25T10:22:43;7.30;99.90
5842;DHT22;2947;52.276;9.946;2022-11-25T10:25:18;7.30;99.90
5842;DHT22;2947;52.276;9.946;2022-11-25T10:28:19;7.30;99.90
5842;DHT22;2947;52.276;9.946;2022-11-25T10:31:44;7.30;99.90
5842;DHT22;2947;52.276;9.946;2022-11-25T10:34:25;7.30;99.90
5842;DHT22;2947;52.276;9.946;2022-11-25T10:36:57;7.40;99.90
5842;DHT22;2947;52.276;9.946;2022-11-25T10:39:28;7.40;99.90
5842;DHT22;2947;52.276;9.946;2022-11-25T10:42:08;7.40;99.90
5842;DHT22;2947;52.276;9.946;2022-11-25T10:44:40;7.40;99.90
5842;DHT22;2947;52.276;9.946;2022-11-25T10:47:35;7.50;99.90
5842;DHT22;2947;52.276;9.946;2022-11-25T10:50:23;7.50;99.90
5842;DHT22;2947;52.276;9.946;2022-11-25T10:55:21;7.60;99.90
5842;DHT22;2947;52.276;9.946;2022-11-25T10:57:52;7.60;99.90
5842;DHT22;2947;52.276;9.946;2022-11-25T11:00:37;7.60;99.90
5842;DHT22;2947;52.276;9.946;2022-11-25T11:03:25;7.60;99.90
5842;DHT22;2947;52.276;9.946;2022-11-25T11:05:52;7.70;99.90
5842;DHT22;2947;52.276;9.946;2022-11-25T11:08:25;7.70;99.90
5842;DHT22;2947;52.276;9.946;2022-11-25T11:13:37;7.70;99.90
5842;DHT22;2947;52.276;9.946;2022-11-25T11:16:04;7.70;99.90
5842;DHT22;2947;52.276;9.946;2022-11-25T11:18:46;7.70;99.90
5842;DHT22;2947;52.276;9.946;2022-11-25T11:21:32;7.70;99.90
5842;DHT22;2947;52.276;9.946;2022-11-25T11:23:59;7.70;99.90
5842;DHT22;2947;52.276;9.946;2022-11-25T11:26:35;7.70;99.90
5842;DHT22;2947;52.276;9.946;2022-11-25T11:29:14;7.70;99.90
5842;DHT22;2947;52.276;9.946;2022-11-25T11:31:56;7.80;99.90
5842;DHT22;2947;52.276;9.946;2022-11-25T11:40:29;7.80;99.90
5842;DHT22;2947;52.276;9.946;2022-11-25T11:43:19;7.80;99.90
5842;DHT22;2947;52.276;9.946;2022-11-25T11:54:15;7.70;99.90
5842;DHT22;2947;52.276;9.946;2022-11-25T11:56:51;7.70;99.90
5842;DHT22;2947;52.276;9.946;2022-11-25T12:02:15;7.70;99.90
5842;DHT22;2947;52.276;9.946;2022-11-25T12:04:56;7.70;99.90
5842;DHT22;2947;52.276;9.946;2022-11-25T12:10:19;7.80;99.90
5842;DHT22;2947;52.276;9.946;2022-11-25T12:15:44;7.80;99.90
5842;DHT22;2947;52.276;9.946;2022-11-25T12:24:32;7.80;99.90
5842;DHT22;2947;52.276;9.946;2022-11-25T12:30:00;7.80;99.90
5842;DHT22;2947;52.276;9.946;2022-11-25T12:35:05;7.90;99.90
5842;DHT22;2947;52.276;9.946;2022-11-25T12:41:07;7.90;99.90
5842;DHT22;2947;52.276;9.946;2022-11-25T12:44:13;7.90;99.90
5842;DHT22;2947;52.276;9.946;2022-11-25T12:46:47;7.90;99.90
5842;DHT22;2947;52.276;9.946;2022-11-25T12:49:25;7.90;99.90
5842;DHT22;2947;52.276;9.946;2022-11-25T12:52:05;8.00;99.90
5842;DHT22;2947;52.276;9.946;2022-11-25T12:55:19;8.00;99.90
5842;DHT22;2947;52.276;9.946;2022-11-25T12:57:54;8.00;99.90
5842;DHT22;2947;52.276;9.946;2022-11-25T13:03:38;8.10;99.90
5842;DHT22;2947;52.276;9.946;2022-11-25T13:15:28;8.30;99.90
5842;DHT22;2947;52.276;9.946;2022-11-25T13:17:59;8.30;99.90
5842;DHT22;2947;52.276;9.946;2022-11-25T13:25:37;8.50;99.90
5842;DHT22;2947;52.276;9.946;2022-11-25T13:34:07;8.50;99.90
5842;DHT22;2947;52.276;9.946;2022-11-25T13:36:47;8.50;99.90
5842;DHT22;2947;52.276;9.946;2022-11-25T13:39:27;8.50;99.90
5842;DHT22;2947;52.276;9.946;2022-11-25T13:42:13;8.50;99.90
5842;DHT22;2947;52.276;9.946;2022-11-25T13:44:49;8.60;99.90
5842;DHT22;2947;52.276;9.946;2022-11-25T13:47:31;8.60;99.90
5842;DHT22;2947;52.276;9.946;2022-11-25T13:53:00;8.60;99.90
5842;DHT22;2947;52.276;9.946;2022-11-25T13:55:37;8.70;99.90
5842;DHT22;2947;52.276;9.946;2022-11-25T13:58:23;8.60;99.90
5842;DHT22;2947;52.276;9.946;2022-11-25T14:03:50;8.80;99.90
5842;DHT22;2947;52.276;9.946;2022-11-25T14:09:48;8.80;99.90
5842;DHT22;2947;52.276;9.946;2022-11-25T14:12:21;8.80;99.90
5842;DHT22;2947;52.276;9.946;2022-11-25T14:15:28;8.90;99.90
5842;DHT22;2947;52.276;9.946;2022-11-25T14:27:02;9.00;99.90
5842;DHT22;2947;52.276;9.946;2022-11-25T14:32:11;9.00;99.90
5842;DHT22;2947;52.276;9.946;2022-11-25T14:37:34;9.00;99.90
5842;DHT22;2947;52.276;9.946;2022-11-25T14:40:11;8.90;99.90
5842;DHT22;2947;52.276;9.946;2022-11-25T14:42:48;8.90;99.90
5842;DHT22;2947;52.276;9.946;2022-11-25T14:45:21;8.90;99.90
5842;DHT22;2947;52.276;9.946;2022-11-25T14:48:13;8.80;99.90
5842;DHT22;2947;52.276;9.946;2022-11-25T14:50:59;8.80;99.90
5842;DHT22;2947;52.276;9.946;2022-11-25T14:53:27;8.80;99.90
5842;DHT22;2947;52.276;9.946;2022-11-25T14:55:55;8.80;99.90
5842;DHT22;2947;52.276;9.946;2022-11-25T14:58:24;8.80;99.90
5842;DHT22;2947;52.276;9.946;2022-11-25T15:01:38;8.70;99.90
5842;DHT22;2947;52.276;9.946;2022-11-25T15:03:46;8.80;99.90
5842;DHT22;2947;52.276;9.946;2022-11-25T15:06:16;8.70;99.90
5842;DHT22;2947;52.276;9.946;2022-11-25T15:08:55;8.80;99.90
5842;DHT22;2947;52.276;9.946;2022-11-25T15:11:25;8.70;99.90
5842;DHT22;2947;52.276;9.946;2022-11-25T15:13:58;8.70;99.90
5842;DHT22;2947;52.276;9.946;2022-11-25T15:16:37;8.70;99.90
5842;DHT22;2947;52.276;9.946;2022-11-25T15:19:13;8.70;99.90
5842;DHT22;2947;52.276;9.946;2022-11-25T15:21:42;8.60;99.90
5842;DHT22;2947;52.276;9.946;2022-11-25T15:24:30;8.60;99.90
5842;DHT22;2947;52.276;9.946;2022-11-25T15:27:15;8.50;99.90
5842;DHT22;2947;52.276;9.946;2022-11-25T15:29:43;8.50;99.90
5842;DHT22;2947;52.276;9.946;2022-11-25T15:32:24;8.40;99.90
5842;DHT22;2947;52.276;9.946;2022-11-25T15:34:57;8.40;99.90
5842;DHT22;2947;52.276;9.946;2022-11-25T15:37:25;8.30;99.90
5842;DHT22;2947;52.276;9.946;2022-11-25T15:43:23;8.30;99.90
5842;DHT22;2947;52.276;9.946;2022-11-25T15:45:53;8.30;99.90
5842;DHT22;2947;52.276;9.946;2022-11-25T15:48:28;8.20;99.90
5842;DHT22;2947;52.276;9.946;2022-11-25T15:51:30;8.10;99.90
5842;DHT22;2947;52.276;9.946;2022-11-25T15:54:06;8.10;99.90
5842;DHT22;2947;52.276;9.946;2022-11-25T15:56:36;8.00;99.90
5842;DHT22;2947;52.276;9.946;2022-11-25T15:59:03;8.00;99.90
5842;DHT22;2947;52.276;9.946;2022-11-25T16:01:29;8.00;99.90
5842;DHT22;2947;52.276;9.946;2022-11-25T16:04:09;8.00;99.90
5842;DHT22;2947;52.276;9.946;2022-11-25T16:06:56;7.90;99.90
5842;DHT22;2947;52.276;9.946;2022-11-25T16:09:24;7.90;99.90
5842;DHT22;2947;52.276;9.946;2022-11-25T16:11:52;7.90;99.90
5842;DHT22;2947;52.276;9.946;2022-11-25T16:14:33;7.90;99.90
5842;DHT22;2947;52.276;9.946;2022-11-25T16:17:04;7.80;99.90
5842;DHT22;2947;52.276;9.946;2022-11-25T16:19:39;7.80;99.90
5842;DHT22;2947;52.276;9.946;2022-11-25T16:22:12;7.80;99.90
5842;DHT22;2947;52.276;9.946;2022-11-25T16:24:48;7.70;99.90
5842;DHT22;2947;52.276;9.946;2022-11-25T16:27:21;7.60;99.90
5842;DHT22;2947;52.276;9.946;2022-11-25T16:32:18;7.60;99.90
5842;DHT22;2947;52.276;9.946;2022-11-25T16:34:45;7.60;99.90
5842;DHT22;2947;52.276;9.946;2022-11-25T16:37:11;7.60;99.90
5842;DHT22;2947;52.276;9.946;2022-11-25T16:39:37;7.60;99.90
5842;DHT22;2947;52.276;9.946;2022-11-25T16:42:04;7.60;99.90
5842;DHT22;2947;52.276;9.946;2022-11-25T16:44:32;7.60;99.90
5842;DHT22;2947;52.276;9.946;2022-11-25T16:46:58;7.60;99.90
5842;DHT22;2947;52.276;9.946;2022-11-25T16:49:25;7.60;99.90
5842;DHT22;2947;52.276;9.946;2022-11-25T16:51:51;7.60;99.90
5842;DHT22;2947;52.276;9.946;2022-11-25T16:54:21;7.60;99.90
5842;DHT22;2947;52.276;9.946;2022-11-25T16:56:49;7.60;99.90
5842;DHT22;2947;52.276;9.946;2022-11-25T16:59:25;7.70;99.90
5842;DHT22;2947;52.276;9.946;2022-11-25T17:02:00;7.70;99.90
5842;DHT22;2947;52.276;9.946;2022-11-25T17:04:26;7.80;99.90
5842;DHT22;2947;52.276;9.946;2022-11-25T17:06:54;7.80;99.90
5842;DHT22;2947;52.276;9.946;2022-11-25T17:09:20;7.80;99.90
5842;DHT22;2947;52.276;9.946;2022-11-25T17:11:49;7.80;99.90
5842;DHT22;2947;52.276;9.946;2022-11-25T17:14:29;7.80;99.90
5842;DHT22;2947;52.276;9.946;2022-11-25T17:16:57;7.80;99.90
5842;DHT22;2947;52.276;9.946;2022-11-25T17:19:23;7.90;99.90
5842;DHT22;2947;52.276;9.946;2022-11-25T17:21:49;7.90;99.90
5842;DHT22;2947;52.276;9.946;2022-11-25T17:24:21;7.90;99.90
5842;DHT22;2947;52.276;9.946;2022-11-25T17:26:59;7.90;99.90
5842;DHT22;2947;52.276;9.946;2022-11-25T17:29:31;8.00;99.90
5842;DHT22;2947;52.276;9.946;2022-11-25T17:32:00;8.00;99.90
5842;DHT22;2947;52.276;9.946;2022-11-25T17:34:26;8.00;99.90
5842;DHT22;2947;52.276;9.946;2022-11-25T17:36:52;8.00;99.90
5842;DHT22;2947;52.276;9.946;2022-11-25T17:39:18;8.00;99.90
5842;DHT22;2947;52.276;9.946;2022-11-25T17:41:48;8.00;99.90
5842;DHT22;2947;52.276;9.946;2022-11-25T17:44:26;8.00;99.90
5842;DHT22;2947;52.276;9.946;2022-11-25T17:46:55;8.00;99.90
5842;DHT22;2947;52.276;9.946;2022-11-25T17:49:22;8.00;99.90
5842;DHT22;2947;52.276;9.946;2022-11-25T17:51:48;8.00;99.90
5842;DHT22;2947;52.276;9.946;2022-11-25T17:54:14;8.00;99.90
5842;DHT22;2947;52.276;9.946;2022-11-25T17:56:42;8.00;99.90
5842;DHT22;2947;52.276;9.946;2022-11-25T17:59:16;8.00;99.90
5842;DHT22;2947;52.276;9.946;2022-11-25T18:01:43;7.90;99.90
5842;DHT22;2947;52.276;9.946;2022-11-25T18:04:23;7.90;99.90
5842;DHT22;2947;52.276;9.946;2022-11-25T18:06:50;8.00;99.90
5842;DHT22;2947;52.276;9.946;2022-11-25T18:09:16;8.00;99.90
5842;DHT22;2947;52.276;9.946;2022-11-25T18:11:44;8.00;99.90
5842;DHT22;2947;52.276;9.946;2022-11-25T18:14:25;8.00;99.90
5842;DHT22;2947;52.276;9.946;2022-11-25T18:16:52;7.90;99.90
5842;DHT22;2947;52.276;9.946;2022-11-25T18:19:19;8.00;99.90
5842;DHT22;2947;52.276;9.946;2022-11-25T18:21:44;8.00;99.90
5842;DHT22;2947;52.276;9.946;2022-11-25T18:24:11;8.00;99.90
5842;DHT22;2947;52.276;9.946;2022-11-25T18:26:45;8.00;99.90
5842;DHT22;2947;52.276;9.946;2022-11-25T18:29:18;8.00;99.90
5842;DHT22;2947;52.276;9.946;2022-11-25T18:31:49;7.90;99.90
5842;DHT22;2947;52.276;9.946;2022-11-25T18:34:16;7.90;99.90
5842;DHT22;2947;52.276;9.946;2022-11-25T18:36:43;7.90;99.90
5842;DHT22;2947;52.276;9.946;2022-11-25T18:39:10;7.80;99.90